sensor_id;sensor_type;location;lat;lon;timestamp;pressure;altitude;pressure_sealevel;temperature;humidity
54872;BME280;43914;57.680;11.982;2023-02-11T00:02:01;100272.54;;;6.05;100.00
54872;BME280;43914;57.680;11.982;2023-02-11T00:04:29;100280.11;;;6.06;100.00
54872;BME280;43914;57.680;11.982;2023-02-11T00:06:54;100294.92;;;6.06;100.00
54872;BME280;43914;57.680;11.982;2023-02-11T00:09:20;100284.52;;;6.05;100.00
54872;BME280;43914;57.680;11.982;2023-02-11T00:11:45;100289.48;;;6.05;100.00
54872;BME280;43914;57.680;11.982;2023-02-11T00:14:19;100288.05;;;6.05;100.00
54872;BME280;43914;57.680;11.982;2023-02-11T00:16:45;100276.88;;;6.05;100.00
54872;BME280;43914;57.680;11.982;2023-02-11T00:19:10;100268.41;;;6.03;100.00
54872;BME280;43914;57.680;11.982;2023-02-11T00:21:36;100271.67;;;6.02;100.00
54872;BME280;43914;57.680;11.982;2023-02-11T00:24:02;100276.68;;;6.03;100.00
54872;BME280;43914;57.680;11.982;2023-02-11T00:26:33;100276.05;;;6.04;100.00
54872;BME280;43914;57.680;11.982;2023-02-11T00:29:00;100264.45;;;6.05;100.00
54872;BME280;43914;57.680;11.982;2023-02-11T00:31:26;100247.89;;;6.05;100.00
54872;BME280;43914;57.680;11.982;2023-02-11T00:33:53;100246.33;;;6.06;100.00
54872;BME280;43914;57.680;11.982;2023-02-11T00:36:23;100242.34;;;6.09;100.00
54872;BME280;43914;57.680;11.982;2023-02-11T00:38:50;100237.17;;;6.11;100.00
54872;BME280;43914;57.680;11.982;2023-02-11T00:41:17;100234.17;;;6.12;100.00
54872;BME280;43914;57.680;11.982;2023-02-11T00:43:42;100236.27;;;6.13;100.00
54872;BME280;43914;57.680;11.982;2023-02-11T00:46:10;100251.41;;;6.12;100.00
54872;BME280;43914;57.680;11.982;2023-02-11T00:48:35;100244.08;;;6.11;100.00
54872;BME280;43914;57.680;11.982;2023-02-11T00:51:01;100259.45;;;6.09;100.00
54872;BME280;43914;57.680;11.982;2023-02-11T00:53:28;100244.09;;;6.07;100.00
54872;BME280;43914;57.680;11.982;2023-02-11T00:55:54;100244.66;;;6.07;100.00
54872;BME280;43914;57.680;11.982;2023-02-11T00:58:20;100250.52;;;6.07;100.00
54872;BME280;43914;57.680;11.982;2023-02-11T01:00:46;100236.60;;;6.08;100.00
54872;BME280;43914;57.680;11.982;2023-02-11T01:03:12;100228.86;;;6.07;100.00
54872;BME280;43914;57.680;11.982;2023-02-11T01:05:38;100217.20;;;6.06;100.00
54872;BME280;43914;57.680;11.982;2023-02-11T01:08:07;100229.55;;;6.05;100.00
54872;BME280;43914;57.680;11.982;2023-02-11T01:10:32;100233.83;;;6.02;100.00
54872;BME280;43914;57.680;11.982;2023-02-11T01:12:58;100225.13;;;6.00;100.00
54872;BME280;43914;57.680;11.982;2023-02-11T01:15:24;100227.63;;;5.98;100.00
54872;BME280;43914;57.680;11.982;2023-02-11T01:17:50;100236.48;;;5.97;100.00
54872;BME280;43914;57.680;11.982;2023-02-11T01:20:20;100239.94;;;5.96;100.00
54872;BME280;43914;57.680;11.982;2023-02-11T01:22:46;100235.98;;;5.97;100.00
54872;BME280;43914;57.680;11.982;2023-02-11T01:25:12;100218.80;;;5.96;100.00
54872;BME280;43914;57.680;11.982;2023-02-11T01:27:38;100214.23;;;5.94;100.00
54872;BME280;43914;57.680;11.982;2023-02-11T01:30:06;100217.77;;;5.90;100.00
54872;BME280;43914;57.680;11.982;2023-02-11T01:32:33;100214.06;;;5.90;100.00
54872;BME280;43914;57.680;11.982;2023-02-11T01:34:59;100222.43;;;5.90;100.00
54872;BME280;43914;57.680;11.982;2023-02-11T01:37:24;100223.99;;;5.89;100.00
54872;BME280;43914;57.680;11.982;2023-02-11T01:39:50;100237.30;;;5.89;100.00
54872;BME280;43914;57.680;11.982;2023-02-11T01:42:17;100210.80;;;5.89;100.00
54872;BME280;43914;57.680;11.982;2023-02-11T01:44:43;100227.91;;;5.91;100.00
54872;BME280;43914;57.680;11.982;2023-02-11T01:47:09;100202.16;;;5.90;100.00
54872;BME280;43914;57.680;11.982;2023-02-11T01:49:38;100195.36;;;5.89;100.00
54872;BME280;43914;57.680;11.982;2023-02-11T01:52:11;100201.60;;;5.89;100.00
54872;BME280;43914;57.680;11.982;2023-02-11T01:54:42;100201.88;;;5.88;100.00
54872;BME280;43914;57.680;11.982;2023-02-11T01:57:30;100231.86;;;5.88;100.00
54872;BME280;43914;57.680;11.982;2023-02-11T02:09:08;100241.67;;;5.88;100.00
54872;BME280;43914;57.680;11.982;2023-02-11T02:11:36;100230.00;;;5.89;100.00
54872;BME280;43914;57.680;11.982;2023-02-11T02:14:02;100254.04;;;5.91;100.00
54872;BME280;43914;57.680;11.982;2023-02-11T02:16:33;100249.48;;;5.92;100.00
54872;BME280;43914;57.680;11.982;2023-02-11T02:38:21;100224.96;;;5.93;100.00
54872;BME280;43914;57.680;11.982;2023-02-11T02:40:57;100228.91;;;5.93;100.00
54872;BME280;43914;57.680;11.982;2023-02-11T02:43:25;100211.66;;;5.93;100.00
54872;BME280;43914;57.680;11.982;2023-02-11T02:45:52;100215.86;;;5.93;100.00
54872;BME280;43914;57.680;11.982;2023-02-11T02:48:37;100200.86;;;5.94;100.00
54872;BME280;43914;57.680;11.982;2023-02-11T02:51:29;100209.17;;;5.93;100.00
54872;BME280;43914;57.680;11.982;2023-02-11T02:56:42;100195.46;;;5.93;100.00
54872;BME280;43914;57.680;11.982;2023-02-11T03:09:50;100226.73;;;5.90;100.00
54872;BME280;43914;57.680;11.982;2023-02-11T03:12:20;100215.96;;;5.89;100.00
54872;BME280;43914;57.680;11.982;2023-02-11T03:14:50;100223.23;;;5.88;100.00
54872;BME280;43914;57.680;11.982;2023-02-11T03:17:17;100210.14;;;5.87;100.00
54872;BME280;43914;57.680;11.982;2023-02-11T03:19:45;100195.87;;;5.88;100.00
54872;BME280;43914;57.680;11.982;2023-02-11T03:22:54;100209.13;;;5.88;100.00
54872;BME280;43914;57.680;11.982;2023-02-11T03:25:26;100217.43;;;5.87;100.00
54872;BME280;43914;57.680;11.982;2023-02-11T03:27:59;100232.50;;;5.89;100.00
54872;BME280;43914;57.680;11.982;2023-02-11T03:30:32;100219.80;;;5.90;100.00
54872;BME280;43914;57.680;11.982;2023-02-11T03:35:53;100235.79;;;5.89;100.00
54872;BME280;43914;57.680;11.982;2023-02-11T03:38:24;100222.86;;;5.89;100.00
54872;BME280;43914;57.680;11.982;2023-02-11T03:40:53;100231.00;;;5.90;100.00
54872;BME280;43914;57.680;11.982;2023-02-11T03:43:41;100222.64;;;5.90;100.00
54872;BME280;43914;57.680;11.982;2023-02-11T03:46:09;100213.73;;;5.90;100.00
54872;BME280;43914;57.680;11.982;2023-02-11T03:48:41;100213.20;;;5.90;100.00
54872;BME280;43914;57.680;11.982;2023-02-11T03:51:11;100200.77;;;5.90;100.00
54872;BME280;43914;57.680;11.982;2023-02-11T03:53:39;100208.89;;;5.90;100.00
54872;BME280;43914;57.680;11.982;2023-02-11T03:56:08;100211.80;;;5.90;100.00
54872;BME280;43914;57.680;11.982;2023-02-11T03:58:35;100222.83;;;5.90;100.00
54872;BME280;43914;57.680;11.982;2023-02-11T04:01:01;100226.60;;;5.89;100.00
54872;BME280;43914;57.680;11.982;2023-02-11T04:03:28;100215.16;;;5.88;100.00
54872;BME280;43914;57.680;11.982;2023-02-11T04:05:53;100215.70;;;5.87;100.00
54872;BME280;43914;57.680;11.982;2023-02-11T04:08:19;100213.50;;;5.87;100.00
54872;BME280;43914;57.680;11.982;2023-02-11T04:10:45;100198.23;;;5.87;100.00
54872;BME280;43914;57.680;11.982;2023-02-11T04:13:11;100175.03;;;5.86;100.00
54872;BME280;43914;57.680;11.982;2023-02-11T04:15:36;100161.95;;;5.85;100.00
54872;BME280;43914;57.680;11.982;2023-02-11T04:18:02;100166.33;;;5.84;100.00
54872;BME280;43914;57.680;11.982;2023-02-11T04:20:28;100151.27;;;5.83;100.00
54872;BME280;43914;57.680;11.982;2023-02-11T04:22:53;100114.34;;;5.81;100.00
54872;BME280;43914;57.680;11.982;2023-02-11T04:25:19;100104.15;;;5.79;100.00
54872;BME280;43914;57.680;11.982;2023-02-11T04:27:44;100100.88;;;5.78;100.00
54872;BME280;43914;57.680;11.982;2023-02-11T04:30:10;100118.99;;;5.76;100.00
54872;BME280;43914;57.680;11.982;2023-02-11T04:32:36;100170.50;;;5.77;100.00
54872;BME280;43914;57.680;11.982;2023-02-11T04:35:02;100198.05;;;5.75;100.00
54872;BME280;43914;57.680;11.982;2023-02-11T04:37:28;100184.05;;;5.73;100.00
54872;BME280;43914;57.680;11.982;2023-02-11T04:39:53;100187.73;;;5.72;100.00
54872;BME280;43914;57.680;11.982;2023-02-11T04:42:19;100190.77;;;5.72;100.00
54872;BME280;43914;57.680;11.982;2023-02-11T04:44:44;100202.20;;;5.72;100.00
54872;BME280;43914;57.680;11.982;2023-02-11T04:47:10;100209.19;;;5.71;100.00
54872;BME280;43914;57.680;11.982;2023-02-11T04:49:37;100205.39;;;5.70;100.00
54872;BME280;43914;57.680;11.982;2023-02-11T04:52:03;100171.09;;;5.68;100.00
54872;BME280;43914;57.680;11.982;2023-02-11T04:54:29;100164.14;;;5.67;100.00
54872;BME280;43914;57.680;11.982;2023-02-11T04:56:54;100171.41;;;5.64;100.00
54872;BME280;43914;57.680;11.982;2023-02-11T04:59:20;100185.63;;;5.60;100.00
54872;BME280;43914;57.680;11.982;2023-02-11T05:01:46;100206.28;;;5.58;100.00
54872;BME280;43914;57.680;11.982;2023-02-11T05:04:11;100208.41;;;5.55;100.00
54872;BME280;43914;57.680;11.982;2023-02-11T05:06:38;100233.80;;;5.52;100.00
54872;BME280;43914;57.680;11.982;2023-02-11T05:09:04;100267.67;;;5.49;100.00
54872;BME280;43914;57.680;11.982;2023-02-11T05:11:29;100265.77;;;5.47;100.00
54872;BME280;43914;57.680;11.982;2023-02-11T05:13:55;100265.02;;;5.43;100.00
54872;BME280;43914;57.680;11.982;2023-02-11T05:16:20;100258.09;;;5.42;100.00
54872;BME280;43914;57.680;11.982;2023-02-11T05:18:46;100259.73;;;5.40;100.00
54872;BME280;43914;57.680;11.982;2023-02-11T05:21:14;100263.64;;;5.38;100.00
54872;BME280;43914;57.680;11.982;2023-02-11T05:23:40;100272.27;;;5.37;100.00
54872;BME280;43914;57.680;11.982;2023-02-11T05:26:07;100270.20;;;5.35;100.00
54872;BME280;43914;57.680;11.982;2023-02-11T05:28:33;100276.42;;;5.33;100.00
54872;BME280;43914;57.680;11.982;2023-02-11T05:30:59;100282.11;;;5.32;100.00
54872;BME280;43914;57.680;11.982;2023-02-11T05:33:25;100281.38;;;5.32;100.00
54872;BME280;43914;57.680;11.982;2023-02-11T05:35:50;100283.08;;;5.31;100.00
54872;BME280;43914;57.680;11.982;2023-02-11T05:38:16;100289.55;;;5.30;100.00
54872;BME280;43914;57.680;11.982;2023-02-11T05:40:43;100284.07;;;5.28;100.00
54872;BME280;43914;57.680;11.982;2023-02-11T05:43:08;100288.85;;;5.30;100.00
54872;BME280;43914;57.680;11.982;2023-02-11T05:45:34;100303.92;;;5.30;100.00
54872;BME280;43914;57.680;11.982;2023-02-11T05:48:00;100308.87;;;5.30;100.00
54872;BME280;43914;57.680;11.982;2023-02-11T05:50:25;100300.96;;;5.30;100.00
54872;BME280;43914;57.680;11.982;2023-02-11T05:52:51;100306.30;;;5.31;100.00
54872;BME280;43914;57.680;11.982;2023-02-11T05:55:16;100309.54;;;5.32;100.00
54872;BME280;43914;57.680;11.982;2023-02-11T05:57:42;100308.67;;;5.36;100.00
54872;BME280;43914;57.680;11.982;2023-02-11T06:00:09;100314.70;;;5.37;100.00
54872;BME280;43914;57.680;11.982;2023-02-11T06:02:35;100313.72;;;5.40;100.00
54872;BME280;43914;57.680;11.982;2023-02-11T06:05:01;100309.75;;;5.42;100.00
54872;BME280;43914;57.680;11.982;2023-02-11T06:07:26;100309.70;;;5.43;100.00
54872;BME280;43914;57.680;11.982;2023-02-11T06:09:52;100307.63;;;5.44;100.00
54872;BME280;43914;57.680;11.982;2023-02-11T06:12:17;100299.81;;;5.46;100.00
54872;BME280;43914;57.680;11.982;2023-02-11T06:14:44;100298.80;;;5.47;100.00
54872;BME280;43914;57.680;11.982;2023-02-11T06:17:10;100311.35;;;5.49;100.00
54872;BME280;43914;57.680;11.982;2023-02-11T06:19:35;100317.66;;;5.50;100.00
54872;BME280;43914;57.680;11.982;2023-02-11T06:22:01;100323.16;;;5.50;100.00
54872;BME280;43914;57.680;11.982;2023-02-11T06:24:26;100327.13;;;5.52;100.00
54872;BME280;43914;57.680;11.982;2023-02-11T06:26:52;100340.52;;;5.53;100.00
54872;BME280;43914;57.680;11.982;2023-02-11T06:29:17;100340.29;;;5.52;100.00
54872;BME280;43914;57.680;11.982;2023-02-11T06:31:43;100335.55;;;5.51;100.00
54872;BME280;43914;57.680;11.982;2023-02-11T06:34:09;100336.02;;;5.52;100.00
54872;BME280;43914;57.680;11.982;2023-02-11T06:36:35;100331.89;;;5.50;100.00
54872;BME280;43914;57.680;11.982;2023-02-11T06:39:01;100333.11;;;5.48;100.00
54872;BME280;43914;57.680;11.982;2023-02-11T06:41:27;100336.43;;;5.47;100.00
54872;BME280;43914;57.680;11.982;2023-02-11T06:43:53;100342.75;;;5.46;100.00
54872;BME280;43914;57.680;11.982;2023-02-11T06:46:20;100346.55;;;5.44;100.00
54872;BME280;43914;57.680;11.982;2023-02-11T06:48:45;100348.63;;;5.42;100.00
54872;BME280;43914;57.680;11.982;2023-02-11T06:51:12;100355.64;;;5.44;100.00
54872;BME280;43914;57.680;11.982;2023-02-11T06:53:41;100357.33;;;5.43;100.00
54872;BME280;43914;57.680;11.982;2023-02-11T06:56:09;100375.26;;;5.43;100.00
54872;BME280;43914;57.680;11.982;2023-02-11T06:58:35;100378.48;;;5.43;100.00
54872;BME280;43914;57.680;11.982;2023-02-11T07:01:06;100386.77;;;5.44;100.00
54872;BME280;43914;57.680;11.982;2023-02-11T07:03:34;100390.36;;;5.45;100.00
54872;BME280;43914;57.680;11.982;2023-02-11T07:06:02;100393.57;;;5.46;100.00
54872;BME280;43914;57.680;11.982;2023-02-11T07:08:35;100400.84;;;5.50;100.00
54872;BME280;43914;57.680;11.982;2023-02-11T07:11:10;100405.17;;;5.58;100.00
54872;BME280;43914;57.680;11.982;2023-02-11T07:13:36;100415.90;;;5.63;100.00
54872;BME280;43914;57.680;11.982;2023-02-11T07:16:06;100410.59;;;5.66;100.00
54872;BME280;43914;57.680;11.982;2023-02-11T07:18:32;100418.33;;;5.72;100.00
54872;BME280;43914;57.680;11.982;2023-02-11T07:20:58;100415.02;;;5.76;100.00
54872;BME280;43914;57.680;11.982;2023-02-11T07:23:23;100418.65;;;5.83;100.00
54872;BME280;43914;57.680;11.982;2023-02-11T07:25:49;100427.80;;;5.87;100.00
54872;BME280;43914;57.680;11.982;2023-02-11T07:28:14;100441.14;;;5.90;100.00
54872;BME280;43914;57.680;11.982;2023-02-11T07:30:40;100440.53;;;5.94;100.00
54872;BME280;43914;57.680;11.982;2023-02-11T07:33:05;100446.15;;;5.99;100.00
54872;BME280;43914;57.680;11.982;2023-02-11T07:35:31;100453.79;;;6.04;100.00
54872;BME280;43914;57.680;11.982;2023-02-11T07:37:56;100465.11;;;6.08;100.00
54872;BME280;43914;57.680;11.982;2023-02-11T07:40:21;100478.01;;;6.12;100.00
54872;BME280;43914;57.680;11.982;2023-02-11T07:42:47;100475.35;;;6.17;100.00
54872;BME280;43914;57.680;11.982;2023-02-11T07:45:13;100481.90;;;6.23;100.00
54872;BME280;43914;57.680;11.982;2023-02-11T07:47:38;100491.20;;;6.27;100.00
54872;BME280;43914;57.680;11.982;2023-02-11T07:50:04;100496.70;;;6.32;100.00
54872;BME280;43914;57.680;11.982;2023-02-11T07:52:31;100505.19;;;6.37;100.00
54872;BME280;43914;57.680;11.982;2023-02-11T07:54:56;100504.41;;;6.41;100.00
54872;BME280;43914;57.680;11.982;2023-02-11T07:57:22;100508.98;;;6.46;100.00
54872;BME280;43914;57.680;11.982;2023-02-11T07:59:47;100515.98;;;6.51;100.00
54872;BME280;43914;57.680;11.982;2023-02-11T08:02:13;100525.63;;;6.55;100.00
54872;BME280;43914;57.680;11.982;2023-02-11T08:04:38;100534.86;;;6.60;100.00
54872;BME280;43914;57.680;11.982;2023-02-11T08:07:04;100534.17;;;6.67;100.00
54872;BME280;43914;57.680;11.982;2023-02-11T08:09:32;100540.24;;;6.74;100.00
54872;BME280;43914;57.680;11.982;2023-02-11T08:11:58;100547.20;;;6.79;100.00
54872;BME280;43914;57.680;11.982;2023-02-11T08:14:24;100547.72;;;6.84;100.00
54872;BME280;43914;57.680;11.982;2023-02-11T08:16:51;100558.69;;;6.90;100.00
54872;BME280;43914;57.680;11.982;2023-02-11T08:19:16;100571.98;;;6.94;100.00
54872;BME280;43914;57.680;11.982;2023-02-11T08:21:43;100578.36;;;6.94;100.00
54872;BME280;43914;57.680;11.982;2023-02-11T08:24:09;100592.93;;;7.03;99.69
54872;BME280;43914;57.680;11.982;2023-02-11T08:26:35;100595.29;;;7.09;98.80
54872;BME280;43914;57.680;11.982;2023-02-11T08:29:04;100601.44;;;7.13;98.75
54872;BME280;43914;57.680;11.982;2023-02-11T08:31:34;100601.98;;;7.18;98.51
54872;BME280;43914;57.680;11.982;2023-02-11T08:34:00;100613.67;;;7.24;98.45
54872;BME280;43914;57.680;11.982;2023-02-11T08:36:29;100619.63;;;7.28;98.57
54872;BME280;43914;57.680;11.982;2023-02-11T08:38:57;100631.59;;;7.31;97.60
54872;BME280;43914;57.680;11.982;2023-02-11T08:41:24;100636.23;;;7.31;97.76
54872;BME280;43914;57.680;11.982;2023-02-11T08:43:50;100644.73;;;7.32;97.73
54872;BME280;43914;57.680;11.982;2023-02-11T08:46:17;100654.48;;;7.31;96.92
54872;BME280;43914;57.680;11.982;2023-02-11T08:48:45;100665.54;;;7.29;97.44
54872;BME280;43914;57.680;11.982;2023-02-11T08:51:14;100674.37;;;7.28;97.67
54872;BME280;43914;57.680;11.982;2023-02-11T08:53:40;100684.39;;;7.28;96.91
54872;BME280;43914;57.680;11.982;2023-02-11T08:56:06;100677.52;;;7.29;97.17
54872;BME280;43914;57.680;11.982;2023-02-11T08:58:32;100671.98;;;7.32;98.37
54872;BME280;43914;57.680;11.982;2023-02-11T09:00:58;100680.05;;;7.35;98.87
54872;BME280;43914;57.680;11.982;2023-02-11T09:03:24;100683.11;;;7.38;98.89
54872;BME280;43914;57.680;11.982;2023-02-11T09:05:50;100687.89;;;7.40;98.33
54872;BME280;43914;57.680;11.982;2023-02-11T09:08:18;100703.88;;;7.41;97.88
54872;BME280;43914;57.680;11.982;2023-02-11T09:10:45;100712.69;;;7.40;96.48
54872;BME280;43914;57.680;11.982;2023-02-11T09:13:11;100718.70;;;7.39;97.16
54872;BME280;43914;57.680;11.982;2023-02-11T09:15:37;100719.30;;;7.36;96.61
54872;BME280;43914;57.680;11.982;2023-02-11T09:18:03;100736.64;;;7.34;97.43
54872;BME280;43914;57.680;11.982;2023-02-11T09:20:30;100745.41;;;7.32;98.07
54872;BME280;43914;57.680;11.982;2023-02-11T09:22:57;100754.63;;;7.28;97.47
54872;BME280;43914;57.680;11.982;2023-02-11T09:25:23;100763.54;;;7.20;97.76
54872;BME280;43914;57.680;11.982;2023-02-11T09:27:49;100767.09;;;7.15;98.67
54872;BME280;43914;57.680;11.982;2023-02-11T09:30:15;100777.11;;;7.15;99.39
54872;BME280;43914;57.680;11.982;2023-02-11T09:32:41;100784.52;;;7.13;99.52
54872;BME280;43914;57.680;11.982;2023-02-11T09:35:07;100791.93;;;7.11;99.68
54872;BME280;43914;57.680;11.982;2023-02-11T09:37:33;100794.59;;;7.10;99.23
54872;BME280;43914;57.680;11.982;2023-02-11T09:39:58;100796.14;;;7.11;99.48
54872;BME280;43914;57.680;11.982;2023-02-11T09:45:11;100798.58;;;7.14;99.75
54872;BME280;43914;57.680;11.982;2023-02-11T09:47:50;100811.48;;;7.17;99.74
54872;BME280;43914;57.680;11.982;2023-02-11T09:50:25;100816.59;;;7.19;99.77
54872;BME280;43914;57.680;11.982;2023-02-11T09:53:02;100825.83;;;7.25;99.39
54872;BME280;43914;57.680;11.982;2023-02-11T09:55:34;100835.84;;;7.30;99.88
54872;BME280;43914;57.680;11.982;2023-02-11T09:58:09;100845.41;;;7.34;99.16
54872;BME280;43914;57.680;11.982;2023-02-11T10:00:40;100856.61;;;7.32;98.87
54872;BME280;43914;57.680;11.982;2023-02-11T10:03:43;100861.32;;;7.37;98.55
54872;BME280;43914;57.680;11.982;2023-02-11T10:08:54;100868.50;;;7.36;98.30
54872;BME280;43914;57.680;11.982;2023-02-11T10:17:20;100894.91;;;7.36;98.53
54872;BME280;43914;57.680;11.982;2023-02-11T10:22:47;100907.38;;;7.38;97.96
54872;BME280;43914;57.680;11.982;2023-02-11T10:27:42;100921.30;;;7.43;97.86
54872;BME280;43914;57.680;11.982;2023-02-11T10:35:20;100929.51;;;7.46;98.30
54872;BME280;43914;57.680;11.982;2023-02-11T10:37:46;100935.09;;;7.51;98.03
54872;BME280;43914;57.680;11.982;2023-02-11T10:40:16;100941.98;;;7.54;97.13
54872;BME280;43914;57.680;11.982;2023-02-11T10:42:47;100949.36;;;7.58;97.64
54872;BME280;43914;57.680;11.982;2023-02-11T10:45:33;100947.77;;;7.56;96.41
54872;BME280;43914;57.680;11.982;2023-02-11T10:48:04;100957.29;;;7.61;96.94
54872;BME280;43914;57.680;11.982;2023-02-11T10:50:32;100963.46;;;7.61;96.96
54872;BME280;43914;57.680;11.982;2023-02-11T10:53:28;100974.99;;;7.62;96.40
54872;BME280;43914;57.680;11.982;2023-02-11T10:55:55;100981.06;;;7.62;96.48
54872;BME280;43914;57.680;11.982;2023-02-11T10:58:30;100987.55;;;7.61;96.79
54872;BME280;43914;57.680;11.982;2023-02-11T11:01:00;100993.54;;;7.65;97.10
54872;BME280;43914;57.680;11.982;2023-02-11T11:03:31;100995.97;;;7.70;96.44
54872;BME280;43914;57.680;11.982;2023-02-11T11:06:00;100999.41;;;7.69;94.72
54872;BME280;43914;57.680;11.982;2023-02-11T11:08:47;100998.08;;;7.70;94.93
54872;BME280;43914;57.680;11.982;2023-02-11T11:11:22;101001.85;;;7.73;95.49
54872;BME280;43914;57.680;11.982;2023-02-11T11:16:36;101003.00;;;7.79;95.66
54872;BME280;43914;57.680;11.982;2023-02-11T11:24:05;101017.38;;;7.82;94.93
54872;BME280;43914;57.680;11.982;2023-02-11T11:26:42;101022.00;;;7.84;94.63
54872;BME280;43914;57.680;11.982;2023-02-11T11:29:16;101020.38;;;7.87;95.19
54872;BME280;43914;57.680;11.982;2023-02-11T11:31:59;101027.08;;;7.93;94.81
54872;BME280;43914;57.680;11.982;2023-02-11T11:34:30;101037.52;;;7.96;94.59
54872;BME280;43914;57.680;11.982;2023-02-11T11:36:58;101052.26;;;7.98;93.55
54872;BME280;43914;57.680;11.982;2023-02-11T11:39:32;101054.97;;;8.01;93.69
54872;BME280;43914;57.680;11.982;2023-02-11T11:42:04;101059.41;;;8.06;94.31
54872;BME280;43914;57.680;11.982;2023-02-11T11:44:38;101065.59;;;8.13;94.25
54872;BME280;43914;57.680;11.982;2023-02-11T11:47:43;101075.28;;;8.17;93.59
54872;BME280;43914;57.680;11.982;2023-02-11T11:50:25;101082.02;;;8.21;93.56
54872;BME280;43914;57.680;11.982;2023-02-11T11:55:44;101093.05;;;8.27;92.91
54872;BME280;43914;57.680;11.982;2023-02-11T11:58:19;101101.19;;;8.29;92.88
54872;BME280;43914;57.680;11.982;2023-02-11T12:11:24;101125.48;;;8.46;91.87
54872;BME280;43914;57.680;11.982;2023-02-11T12:28:13;101153.27;;;8.61;89.80
54872;BME280;43914;57.680;11.982;2023-02-11T12:36:15;101173.21;;;8.67;87.09
54872;BME280;43914;57.680;11.982;2023-02-11T12:39:24;101185.99;;;8.66;86.44
54872;BME280;43914;57.680;11.982;2023-02-11T12:55:58;101201.13;;;8.63;86.22
54872;BME280;43914;57.680;11.982;2023-02-11T12:58:29;101210.02;;;8.61;86.31
54872;BME280;43914;57.680;11.982;2023-02-11T13:01:20;101216.96;;;8.60;86.60
54872;BME280;43914;57.680;11.982;2023-02-11T13:03:53;101217.23;;;8.59;86.39
54872;BME280;43914;57.680;11.982;2023-02-11T13:06:28;101219.14;;;8.58;86.72
54872;BME280;43914;57.680;11.982;2023-02-11T13:09:02;101220.45;;;8.57;86.81
54872;BME280;43914;57.680;11.982;2023-02-11T13:11:34;101216.35;;;8.59;86.77
54872;BME280;43914;57.680;11.982;2023-02-11T13:19:30;101232.44;;;8.57;86.56
54872;BME280;43914;57.680;11.982;2023-02-11T13:22:37;101235.85;;;8.57;85.92
54872;BME280;43914;57.680;11.982;2023-02-11T13:25:21;101240.56;;;8.55;86.42
54872;BME280;43914;57.680;11.982;2023-02-11T13:30:40;101259.55;;;8.59;86.99
54872;BME280;43914;57.680;11.982;2023-02-11T13:35:46;101261.88;;;8.66;87.20
54872;BME280;43914;57.680;11.982;2023-02-11T13:40:41;101262.38;;;8.73;87.04
54872;BME280;43914;57.680;11.982;2023-02-11T13:43:20;101264.34;;;8.77;86.87
54872;BME280;43914;57.680;11.982;2023-02-11T13:45:48;101270.98;;;8.75;85.32
54872;BME280;43914;57.680;11.982;2023-02-11T13:51:01;101287.39;;;8.72;85.84
54872;BME280;43914;57.680;11.982;2023-02-11T13:53:28;101297.23;;;8.72;86.24
54872;BME280;43914;57.680;11.982;2023-02-11T13:56:09;101297.95;;;8.72;86.32
54872;BME280;43914;57.680;11.982;2023-02-11T13:58:46;101304.78;;;8.69;85.84
54872;BME280;43914;57.680;11.982;2023-02-11T14:04:17;101307.52;;;8.67;85.88
54872;BME280;43914;57.680;11.982;2023-02-11T14:07:34;101309.91;;;8.64;84.99
54872;BME280;43914;57.680;11.982;2023-02-11T14:13:33;101318.58;;;8.53;84.06
54872;BME280;43914;57.680;11.982;2023-02-11T14:16:11;101324.23;;;8.48;83.49
54872;BME280;43914;57.680;11.982;2023-02-11T14:23:38;101326.20;;;8.35;83.81
54872;BME280;43914;57.680;11.982;2023-02-11T14:29:52;101328.70;;;8.29;84.54
54872;BME280;43914;57.680;11.982;2023-02-11T14:35:02;101336.38;;;8.21;85.35
54872;BME280;43914;57.680;11.982;2023-02-11T14:38:54;101338.59;;;8.19;85.53
54872;BME280;43914;57.680;11.982;2023-02-11T14:43:22;101344.27;;;8.10;85.99
54872;BME280;43914;57.680;11.982;2023-02-11T14:45:50;101351.91;;;8.08;86.24
54872;BME280;43914;57.680;11.982;2023-02-11T14:48:26;101363.83;;;8.07;86.59
54872;BME280;43914;57.680;11.982;2023-02-11T14:50:59;101361.02;;;7.99;86.74
54872;BME280;43914;57.680;11.982;2023-02-11T14:53:27;101372.05;;;8.05;87.09
54872;BME280;43914;57.680;11.982;2023-02-11T14:55:54;101376.22;;;8.04;87.33
54872;BME280;43914;57.680;11.982;2023-02-11T14:58:22;101380.36;;;8.04;87.21
54872;BME280;43914;57.680;11.982;2023-02-11T15:01:02;101387.83;;;8.03;87.51
54872;BME280;43914;57.680;11.982;2023-02-11T15:03:39;101395.35;;;8.02;87.61
54872;BME280;43914;57.680;11.982;2023-02-11T15:08:36;101396.23;;;7.95;87.87
54872;BME280;43914;57.680;11.982;2023-02-11T15:11:11;101397.58;;;7.90;87.78
54872;BME280;43914;57.680;11.982;2023-02-11T15:13:38;101400.95;;;7.85;87.73
54872;BME280;43914;57.680;11.982;2023-02-11T15:16:12;101405.84;;;7.81;87.88
54872;BME280;43914;57.680;11.982;2023-02-11T15:18:45;101413.69;;;7.77;88.14
54872;BME280;43914;57.680;11.982;2023-02-11T15:21:11;101421.82;;;7.74;88.56
54872;BME280;43914;57.680;11.982;2023-02-11T15:23:38;101434.58;;;7.73;88.73
54872;BME280;43914;57.680;11.982;2023-02-11T15:26:20;101438.40;;;7.70;88.85
54872;BME280;43914;57.680;11.982;2023-02-11T15:28:46;101446.13;;;7.68;88.92
54872;BME280;43914;57.680;11.982;2023-02-11T15:31:20;101454.78;;;7.65;88.96
54872;BME280;43914;57.680;11.982;2023-02-11T15:33:48;101454.27;;;7.61;88.89
54872;BME280;43914;57.680;11.982;2023-02-11T15:36:15;101459.13;;;7.57;89.00